Time;durP1;ratioP1;P1;durP2;ratioP2;P2;SDS_P1;SDS_P2;PMS_P1;PMS_P2;Temp;Humidity;BMP_temperature;BMP_pressure;BME280_temperature;BME280_humidity;BME280_pressure;Samples;Min_cycle;Max_cycle;Signal;HPM_P1;HPM_P2
2021/05/04 00:01:05;;;;;;;3.72;2.35;;;12.90;39.80;;;;;;5094447;28;20051;-36
2021/05/04 00:03:31;;;;;;;5.68;2.70;;;13.00;39.80;;;;;;5094162;28;20069;-35
2021/05/04 00:05:57;;;;;;;8.00;2.40;;;12.80;40.20;;;;;;5093839;28;20464;-35
2021/05/04 00:08:22;;;;;;;6.95;3.28;;;12.80;40.20;;;;;;5093986;28;20411;-35
2021/05/04 00:10:48;;;;;;;4.32;2.25;;;12.80;40.30;;;;;;5094746;28;20042;-36
2021/05/04 00:13:14;;;;;;;2.97;2.30;;;12.90;39.90;;;;;;5092586;28;20415;-36
2021/05/04 00:15:39;;;;;;;4.78;2.05;;;12.90;40.20;;;;;;5093707;28;20468;-35
2021/05/04 00:18:05;;;;;;;7.55;3.45;;;12.90;39.90;;;;;;5093728;28;20106;-36
2021/05/04 00:20:31;;;;;;;6.18;2.85;;;13.00;39.80;;;;;;5093860;28;20048;-35
2021/05/04 00:22:56;;;;;;;5.25;2.50;;;12.90;40.00;;;;;;5093605;28;20039;-35
2021/05/04 00:25:22;;;;;;;1.90;1.70;;;13.00;39.90;;;;;;5093604;28;20436;-35
2021/05/04 00:27:47;;;;;;;5.18;2.65;;;12.90;40.00;;;;;;5093354;28;20036;-36
2021/05/04 00:30:14;;;;;;;10.43;2.60;;;12.90;40.10;;;;;;5093388;28;20414;-35
2021/05/04 00:32:39;;;;;;;3.78;2.00;;;13.00;39.70;;;;;;5093395;28;20046;-35
2021/05/04 00:35:05;;;;;;;10.95;2.90;;;12.90;40.00;;;;;;5093600;28;20102;-37
2021/05/04 00:37:31;;;;;;;2.65;2.13;;;12.90;40.30;;;;;;5093358;28;20099;-35
2021/05/04 00:39:57;;;;;;;6.85;2.20;;;12.90;40.10;;;;;;5092054;28;20028;-36
2021/05/04 00:42:25;;;;;;;8.73;2.70;;;12.90;40.20;;;;;;5091995;28;20028;-36
2021/05/04 00:44:51;;;;;;;1.98;1.73;;;12.80;40.40;;;;;;5093547;28;20029;-35
2021/05/04 00:47:16;;;;;;;4.20;2.20;;;13.00;40.00;;;;;;5093123;28;20024;-35
2021/05/04 00:49:42;;;;;;;2.88;1.98;;;12.90;40.20;;;;;;5093048;28;20365;-36
2021/05/04 00:52:08;;;;;;;6.55;2.33;;;12.90;40.10;;;;;;5093467;28;20025;-37
2021/05/04 00:54:34;;;;;;;5.45;2.33;;;13.00;40.10;;;;;;5093995;28;20020;-35
2021/05/04 00:57:00;;;;;;;3.35;1.85;;;13.00;40.10;;;;;;5093642;28;20078;-35
2021/05/04 00:59:27;;;;;;;9.55;2.33;;;13.00;39.80;;;;;;5093123;28;20108;-35
2021/05/04 01:01:54;;;;;;;5.78;2.17;;;13.00;40.10;;;;;;5092934;28;20107;-36
2021/05/04 01:04:21;;;;;;;8.93;1.60;;;13.00;39.90;;;;;;5093039;28;20480;-36
2021/05/04 01:06:47;;;;;;;1.98;1.73;;;13.00;40.10;;;;;;5092265;28;20077;-36
2021/05/04 01:09:14;;;;;;;3.95;2.17;;;13.00;40.30;;;;;;5092193;28;20024;-36
2021/05/04 01:11:40;;;;;;;5.03;2.35;;;12.90;40.40;;;;;;5093204;28;20456;-36
2021/05/04 01:14:06;;;;;;;2.63;1.75;;;12.90;40.30;;;;;;5092816;28;20073;-36
2021/05/04 01:16:31;;;;;;;2.55;1.95;;;13.00;40.40;;;;;;5092841;28;20024;-35
2021/05/04 01:18:57;;;;;;;3.53;2.08;;;13.00;40.30;;;;;;5092832;28;20047;-35
2021/05/04 01:21:23;;;;;;;6.13;2.47;;;13.00;39.90;;;;;;5092698;28;20047;-37
2021/05/04 01:23:48;;;;;;;5.68;1.88;;;13.00;40.00;;;;;;5095602;28;20024;-36
2021/05/04 01:26:14;;;;;;;4.50;1.95;;;13.00;40.20;;;;;;5096675;28;20020;-36
2021/05/04 01:28:40;;;;;;;3.25;1.92;;;13.10;40.00;;;;;;5097007;28;20028;-36
2021/05/04 01:31:05;;;;;;;3.50;2.08;;;13.10;40.10;;;;;;5096922;28;20032;-36
2021/05/04 01:33:31;;;;;;;7.25;2.28;;;13.10;40.10;;;;;;5096686;28;20365;-36
2021/05/04 01:35:57;;;;;;;3.70;1.95;;;13.10;40.10;;;;;;5096732;28;20024;-35
2021/05/04 01:38:23;;;;;;;1.83;1.13;;;13.00;40.00;;;;;;5096777;28;20116;-36
2021/05/04 01:40:49;;;;;;;3.30;2.22;;;13.20;39.90;;;;;;5095194;28;20024;-35
2021/05/04 01:43:15;;;;;;;4.80;1.98;;;13.00;40.20;;;;;;5096627;28;20597;-35
2021/05/04 01:45:40;;;;;;;4.22;2.90;;;13.10;40.40;;;;;;5096671;28;20023;-35
2021/05/04 01:48:07;;;;;;;2.45;1.35;;;13.10;40.00;;;;;;5096264;28;20032;-36
2021/05/04 01:50:32;;;;;;;5.10;1.88;;;13.10;40.10;;;;;;5094967;28;20078;-36
2021/05/04 01:52:58;;;;;;;2.50;2.03;;;13.10;40.00;;;;;;5096364;28;20016;-36
2021/05/04 01:55:24;;;;;;;1.80;1.60;;;13.00;40.40;;;;;;5096573;28;20077;-35
2021/05/04 01:57:49;;;;;;;4.68;1.77;;;13.10;39.70;;;;;;5096381;28;20461;-36
2021/05/04 02:00:16;;;;;;;4.30;1.50;;;13.10;39.60;;;;;;5094773;28;20536;-35
2021/05/04 02:02:41;;;;;;;2.10;1.30;;;13.10;40.10;;;;;;5096194;28;20480;-36
2021/05/04 02:05:08;;;;;;;10.00;2.17;;;12.90;41.00;;;;;;5096236;28;20024;-36
2021/05/04 02:07:33;;;;;;;6.47;1.95;;;12.90;40.40;;;;;;5095863;28;20027;-35
2021/05/04 02:09:59;;;;;;;9.65;1.83;;;12.80;40.40;;;;;;5094667;28;20020;-36
2021/05/04 02:12:25;;;;;;;12.95;2.58;;;12.80;40.60;;;;;;5095993;28;20023;-36
2021/05/04 02:14:51;;;;;;;12.77;2.50;;;12.80;40.70;;;;;;5095907;28;20073;-36
2021/05/04 02:17:17;;;;;;;10.13;1.75;;;12.80;40.70;;;;;;5096350;28;20028;-35
2021/05/04 02:19:43;;;;;;;5.57;1.25;;;12.70;42.00;;;;;;5095825;28;20055;-35
2021/05/04 02:22:08;;;;;;;7.45;1.98;;;12.50;44.10;;;;;;5095918;28;20060;-34
2021/05/04 02:24:34;;;;;;;2.67;1.38;;;12.20;46.40;;;;;;5095639;28;20028;-35
2021/05/04 02:27:00;;;;;;;3.78;1.95;;;12.10;46.60;;;;;;5095751;28;20111;-44
2021/05/04 02:29:25;;;;;;;8.35;1.38;;;12.20;46.00;;;;;;5095532;28;20128;-36
2021/05/04 02:31:51;;;;;;;2.40;1.20;;;12.00;48.50;;;;;;5095496;28;20024;-37
2021/05/04 02:34:17;;;;;;;1.50;1.08;;;11.50;52.80;;;;;;5094226;28;20020;-35
2021/05/04 02:36:43;;;;;;;9.02;1.38;;;11.10;56.00;;;;;;5095663;28;20489;-35
2021/05/04 02:39:08;;;;;;;10.00;1.55;;;11.10;55.40;;;;;;5095604;28;20065;-35
2021/05/04 02:41:35;;;;;;;5.18;1.33;;;10.90;55.50;;;;;;5095277;28;20024;-36
2021/05/04 02:44:01;;;;;;;9.00;1.45;;;10.70;58.00;;;;;;5095296;28;20028;-36
2021/05/04 02:46:29;;;;;;;1.90;1.27;;;10.40;59.40;;;;;;5095336;28;20059;-36
2021/05/04 02:48:56;;;;;;;12.85;2.00;;;10.20;61.80;;;;;;5095165;28;20034;-36
2021/05/04 02:51:22;;;;;;;4.60;1.50;;;10.00;62.20;;;;;;5094968;28;20070;-35
2021/05/04 02:53:47;;;;;;;1.63;1.33;;;9.90;63.90;;;;;;5095103;28;20048;-35
2021/05/04 02:56:13;;;;;;;6.88;1.92;;;9.80;65.60;;;;;;5095042;28;20024;-36
2021/05/04 02:58:39;;;;;;;3.85;1.80;;;9.70;65.40;;;;;;5094993;28;20027;-36
2021/05/04 03:01:05;;;;;;;8.30;1.45;;;9.50;67.00;;;;;;5094893;28;20471;-36
2021/05/04 03:03:34;;;;;;;10.05;1.67;;;9.30;70.10;;;;;;5095126;28;20024;-36
2021/05/04 03:06:00;;;;;;;7.47;2.15;;;9.30;68.90;;;;;;5095414;28;20032;-35
2021/05/04 03:08:25;;;;;;;2.75;1.42;;;9.20;70.30;;;;;;5094962;28;20028;-35
2021/05/04 03:10:51;;;;;;;15.48;2.97;;;9.10;71.30;;;;;;5094971;28;20052;-40
2021/05/04 03:13:28;;;;;;;7.78;1.73;;;9.00;71.50;;;;;;5094798;28;20028;-35
2021/05/04 03:15:54;;;;;;;6.53;1.55;;;8.90;73.40;;;;;;5094633;28;20357;-35
2021/05/04 03:18:20;;;;;;;6.45;1.02;;;8.90;73.60;;;;;;5094554;28;20054;-35
2021/05/04 03:20:48;;;;;;;3.88;1.77;;;8.90;73.00;;;;;;5094441;28;20032;-34
2021/05/04 03:23:14;;;;;;;4.63;1.20;;;8.90;73.40;;;;;;5094670;28;20502;-35
2021/05/04 03:25:41;;;;;;;6.88;1.65;;;8.90;73.70;;;;;;5094197;28;20099;-35
2021/05/04 03:28:07;;;;;;;5.60;1.65;;;8.80;74.90;;;;;;5093686;28;20024;-35
2021/05/04 03:30:33;;;;;;;7.13;2.50;;;8.80;75.50;;;;;;5094550;28;20031;-35
2021/05/04 03:32:58;;;;;;;3.28;2.00;;;8.80;75.90;;;;;;5094733;28;20110;-36
2021/05/04 03:35:24;;;;;;;7.60;2.10;;;8.80;76.10;;;;;;5094775;28;20067;-35
2021/05/04 03:37:49;;;;;;;3.85;1.98;;;8.70;75.90;;;;;;5092863;28;20548;-35
2021/05/04 03:40:17;;;;;;;1.42;0.93;;;8.70;77.00;;;;;;5094138;28;20032;-35
2021/05/04 03:42:42;;;;;;;3.15;1.77;;;8.60;77.20;;;;;;5094453;28;20073;-35
2021/05/04 03:45:11;;;;;;;3.55;1.83;;;8.60;78.10;;;;;;5094079;28;20490;-36
2021/05/04 03:47:41;;;;;;;2.63;1.85;;;8.40;79.20;;;;;;5094132;28;20099;-36
2021/05/04 03:50:10;;;;;;;2.13;1.70;;;8.40;80.20;;;;;;5094344;28;20048;-36
2021/05/04 03:52:36;;;;;;;4.25;1.98;;;8.40;80.30;;;;;;5094138;28;20024;-36
2021/05/04 03:55:02;;;;;;;2.55;1.48;;;8.30;80.70;;;;;;5094188;28;20051;-36
2021/05/04 03:57:28;;;;;;;2.17;1.60;;;8.30;81.40;;;;;;5093776;28;20028;-36
2021/05/04 03:59:53;;;;;;;2.28;1.58;;;8.20;82.20;;;;;;5093996;28;20464;-35
2021/05/04 04:02:19;;;;;;;1.98;1.65;;;8.30;80.20;;;;;;5094003;28;20050;-35
2021/05/04 04:04:45;;;;;;;2.45;1.45;;;8.20;81.70;;;;;;5092465;28;20028;-36
2021/05/04 04:07:11;;;;;;;2.47;1.67;;;8.20;81.20;;;;;;5093571;28;20036;-36
2021/05/04 04:09:37;;;;;;;4.20;2.75;;;8.20;81.90;;;;;;5093611;28;20020;-36
2021/05/04 04:12:02;;;;;;;6.07;2.28;;;8.10;82.40;;;;;;5093510;28;20024;-34
2021/05/04 04:14:28;;;;;;;4.80;2.05;;;8.20;82.30;;;;;;5093389;28;20061;-34
2021/05/04 04:16:54;;;;;;;3.22;2.03;;;8.20;81.90;;;;;;5093461;28;20502;-34
2021/05/04 04:19:20;;;;;;;3.95;2.00;;;8.20;81.40;;;;;;5093403;28;20028;-34
2021/05/04 04:21:48;;;;;;;3.70;2.20;;;8.30;82.30;;;;;;5093645;28;20034;-35
2021/05/04 04:24:14;;;;;;;2.83;1.90;;;8.30;81.60;;;;;;5092143;28;20391;-36
2021/05/04 04:26:39;;;;;;;3.83;1.58;;;8.30;81.20;;;;;;5093266;28;20028;-35
2021/05/04 04:29:05;;;;;;;4.07;1.95;;;8.30;81.10;;;;;;5093189;28;20471;-35
2021/05/04 04:31:31;;;;;;;4.28;1.98;;;8.30;80.40;;;;;;5091922;28;20020;-36
2021/05/04 04:33:56;;;;;;;6.47;2.58;;;8.40;80.90;;;;;;5093527;28;20460;-35
2021/05/04 04:36:22;;;;;;;3.50;2.30;;;8.40;79.60;;;;;;5093197;28;20155;-35
2021/05/04 04:38:47;;;;;;;3.05;1.80;;;8.40;79.00;;;;;;5093189;28;20028;-35
2021/05/04 04:41:13;;;;;;;2.72;1.67;;;8.50;78.20;;;;;;5093114;28;20032;-35
2021/05/04 04:43:39;;;;;;;2.55;1.55;;;8.60;79.40;;;;;;5093125;28;20020;-35
2021/05/04 04:46:04;;;;;;;2.72;1.75;;;8.50;78.40;;;;;;5093157;28;20028;-35
2021/05/04 04:48:30;;;;;;;3.42;1.95;;;8.60;77.10;;;;;;5093108;28;20028;-35
2021/05/04 04:50:55;;;;;;;2.92;2.13;;;8.70;77.90;;;;;;5092976;28;20040;-35
2021/05/04 04:53:21;;;;;;;1.90;1.45;;;8.70;76.70;;;;;;5093827;28;20088;-34
2021/05/04 04:55:46;;;;;;;1.67;1.13;;;8.70;76.50;;;;;;5093174;28;20024;-35
2021/05/04 04:58:12;;;;;;;3.72;1.92;;;8.80;76.00;;;;;;5095277;28;20028;-35
2021/05/04 05:00:38;;;;;;;2.17;1.60;;;8.90;75.10;;;;;;5097423;28;20384;-36
2021/05/04 05:03:03;;;;;;;1.42;1.33;;;8.90;75.50;;;;;;5097424;28;20031;-35
2021/05/04 05:05:29;;;;;;;3.15;1.42;;;8.90;75.60;;;;;;5097079;28;20119;-35
2021/05/04 05:07:55;;;;;;;4.25;1.42;;;8.90;75.70;;;;;;5097783;28;20036;-35
2021/05/04 05:10:20;;;;;;;4.07;1.35;;;8.90;75.10;;;;;;5095671;28;20024;-35
2021/05/04 05:12:46;;;;;;;4.70;1.75;;;9.00;74.40;;;;;;5097082;28;20028;-35
2021/05/04 05:15:13;;;;;;;2.03;1.38;;;9.00;74.50;;;;;;5096892;28;20028;-35
2021/05/04 05:17:39;;;;;;;4.10;1.67;;;9.10;73.90;;;;;;5097231;28;20027;-35
2021/05/04 05:20:05;;;;;;;5.20;1.40;;;9.20;74.60;;;;;;5096724;28;20089;-35
2021/05/04 05:22:31;;;;;;;1.40;1.30;;;9.10;74.40;;;;;;5096794;28;20034;-35
2021/05/04 05:24:58;;;;;;;5.22;1.20;;;9.20;73.40;;;;;;5096787;28;20107;-35
2021/05/04 05:27:24;;;;;;;2.90;1.23;;;9.20;73.10;;;;;;5096511;28;20024;-36
2021/05/04 05:29:50;;;;;;;3.50;1.20;;;9.20;73.20;;;;;;5096533;28;20024;-36
2021/05/04 05:32:15;;;;;;;6.13;2.55;;;9.20;72.40;;;;;;5096846;28;20107;-35
2021/05/04 05:34:41;;;;;;;2.53;1.55;;;9.30;72.30;;;;;;5096546;28;20071;-35
2021/05/04 05:37:07;;;;;;;4.22;1.52;;;9.20;72.70;;;;;;5096808;28;20032;-36
2021/05/04 05:39:37;;;;;;;1.40;1.30;;;9.20;72.10;;;;;;5096633;28;20028;-36
2021/05/04 05:42:04;;;;;;;2.63;1.35;;;9.20;72.30;;;;;;5096555;28;20552;-34
2021/05/04 05:44:30;;;;;;;4.20;1.85;;;9.30;71.50;;;;;;5095336;28;20056;-35
2021/05/04 05:46:56;;;;;;;2.15;1.30;;;9.30;72.10;;;;;;5096179;28;20063;-35
2021/05/04 05:49:21;;;;;;;1.60;1.50;;;9.30;72.50;;;;;;5095025;28;20376;-35
2021/05/04 05:51:47;;;;;;;3.15;1.70;;;9.30;73.00;;;;;;5095879;28;20036;-34
2021/05/04 05:54:13;;;;;;;5.88;1.45;;;9.30;73.90;;;;;;5096328;28;20031;-35
2021/05/04 05:56:38;;;;;;;1.92;1.70;;;9.10;76.30;;;;;;5095776;28;20024;-37
2021/05/04 05:59:04;;;;;;;1.52;1.30;;;8.80;78.70;;;;;;5095904;28;20103;-34
2021/05/04 06:01:30;;;;;;;2.88;1.95;;;8.60;80.00;;;;;;5095665;28;20032;-35
2021/05/04 06:03:56;;;;;;;2.03;1.60;;;8.40;81.50;;;;;;5095882;28;20028;-35
2021/05/04 06:06:21;;;;;;;1.65;1.15;;;8.20;83.40;;;;;;5096405;28;20028;-37
2021/05/04 06:08:47;;;;;;;3.80;2.42;;;8.20;83.30;;;;;;5095868;28;20016;-36
2021/05/04 06:11:13;;;;;;;4.63;2.63;;;8.10;84.10;;;;;;5096100;28;20077;-35
2021/05/04 06:13:38;;;;;;;2.20;1.75;;;8.10;83.80;;;;;;5096030;28;20024;-35
2021/05/04 06:16:05;;;;;;;3.40;2.42;;;8.10;83.90;;;;;;5095900;28;20464;-35
2021/05/04 06:18:31;;;;;;;3.63;2.03;;;8.10;84.90;;;;;;5094319;28;20028;-35
2021/05/04 06:20:57;;;;;;;3.40;2.78;;;8.10;83.90;;;;;;5094226;28;20119;-43
2021/05/04 06:23:23;;;;;;;2.63;2.05;;;8.10;84.10;;;;;;5095511;28;20051;-37
2021/05/04 06:25:48;;;;;;;2.63;1.90;;;8.10;83.80;;;;;;5095469;28;20024;-37
2021/05/04 06:28:14;;;;;;;3.20;2.53;;;8.10;83.70;;;;;;5095811;28;20024;-35
2021/05/04 06:30:40;;;;;;;2.88;2.50;;;8.10;83.40;;;;;;5095457;28;20103;-35
2021/05/04 06:33:13;;;;;;;6.30;3.22;;;8.10;83.70;;;;;;5095255;28;20017;-36
2021/05/04 06:35:41;;;;;;;4.63;3.15;;;8.10;84.40;;;;;;5095421;28;20027;-35
2021/05/04 06:38:11;;;;;;;7.32;2.33;;;8.30;83.60;;;;;;5095212;28;20077;-35
2021/05/04 06:40:37;;;;;;;7.00;2.30;;;8.40;82.80;;;;;;5095182;28;20135;-35
2021/05/04 06:43:03;;;;;;;3.97;2.03;;;8.60;81.50;;;;;;5093736;28;20032;-36
2021/05/04 06:45:29;;;;;;;2.92;1.60;;;8.80;81.10;;;;;;5095204;28;20035;-36
2021/05/04 06:47:55;;;;;;;4.47;2.00;;;9.20;78.40;;;;;;5094978;28;20063;-36
2021/05/04 06:50:21;;;;;;;2.47;1.90;;;9.50;75.40;;;;;;5094642;28;20068;-36
2021/05/04 06:52:46;;;;;;;6.38;2.92;;;9.90;73.60;;;;;;5094950;28;20026;-36
2021/05/04 06:55:12;;;;;;;1.67;0.90;;;10.10;73.00;;;;;;5094491;28;20062;-36
2021/05/04 06:57:39;;;;;;;6.90;1.45;;;10.40;71.30;;;;;;5093153;28;20127;-36
2021/05/04 07:00:06;;;;;;;2.60;1.08;;;10.60;69.90;;;;;;5094378;28;20027;-36
2021/05/04 07:02:32;;;;;;;1.92;1.55;;;10.90;69.80;;;;;;5094858;28;20512;-36
2021/05/04 07:04:58;;;;;;;3.65;1.95;;;10.90;69.00;;;;;;5094797;28;20073;-35
2021/05/04 07:07:24;;;;;;;5.40;1.80;;;10.80;69.50;;;;;;5094608;28;20422;-36
2021/05/04 07:09:49;;;;;;;3.75;1.52;;;10.80;69.30;;;;;;5095007;28;20474;-36
2021/05/04 07:12:15;;;;;;;4.85;1.02;;;10.90;69.20;;;;;;5094950;28;20333;-34
2021/05/04 07:14:41;;;;;;;4.30;1.05;;;10.70;70.80;;;;;;5093412;28;20376;-36
2021/05/04 07:17:06;;;;;;;2.00;1.30;;;10.50;70.80;;;;;;5092898;28;20121;-35
2021/05/04 07:19:32;;;;;;;5.55;1.38;;;10.50;71.30;;;;;;5094084;28;20024;-35
2021/05/04 07:21:59;;;;;;;2.85;1.13;;;10.50;72.20;;;;;;5094292;28;20095;-36
2021/05/04 07:24:25;;;;;;;1.88;1.30;;;10.40;72.00;;;;;;5092720;28;20441;-36
2021/05/04 07:26:51;;;;;;;4.60;2.45;;;10.40;72.10;;;;;;5094283;28;20052;-35
2021/05/04 07:29:16;;;;;;;1.45;1.10;;;10.60;71.90;;;;;;5094281;28;20360;-36
2021/05/04 07:31:43;;;;;;;2.92;1.17;;;10.50;71.80;;;;;;5094267;28;20016;-36
2021/05/04 07:34:10;;;;;;;2.05;1.40;;;10.40;72.40;;;;;;5094331;28;20028;-36
2021/05/04 07:36:36;;;;;;;3.83;1.25;;;10.40;72.80;;;;;;5093914;28;20089;-36
2021/05/04 07:39:01;;;;;;;2.95;1.10;;;10.40;72.50;;;;;;5093813;28;20063;-36
2021/05/04 07:41:29;;;;;;;3.08;1.20;;;10.50;72.50;;;;;;5093827;28;20055;-36
2021/05/04 07:43:55;;;;;;;1.50;1.40;;;10.50;73.10;;;;;;5093908;28;20486;-35
2021/05/04 07:46:23;;;;;;;2.63;1.30;;;10.50;74.60;;;;;;5093717;28;20031;-35
2021/05/04 07:48:49;;;;;;;1.38;0.88;;;10.40;73.90;;;;;;5093709;28;20035;-36
2021/05/04 07:51:14;;;;;;;1.35;1.20;;;10.30;73.70;;;;;;5093550;28;20048;-36
2021/05/04 07:53:40;;;;;;;1.70;1.23;;;10.40;73.30;;;;;;5093793;28;20081;-35
2021/05/04 07:56:06;;;;;;;1.42;1.33;;;10.40;73.30;;;;;;5093788;28;20020;-36
2021/05/04 07:58:32;;;;;;;5.80;1.20;;;10.60;72.70;;;;;;5093801;28;20340;-37
2021/05/04 08:00:57;;;;;;;2.05;1.05;;;10.80;72.40;;;;;;5093581;28;20035;-36
2021/05/04 08:03:23;;;;;;;0.90;0.82;;;10.60;72.20;;;;;;5092379;28;20028;-36
2021/05/04 08:05:50;;;;;;;3.38;0.98;;;10.70;72.80;;;;;;5093042;28;20039;-36
2021/05/04 08:08:16;;;;;;;8.40;1.23;;;10.80;72.70;;;;;;5092568;28;20509;-35
2021/05/04 08:10:42;;;;;;;2.67;1.15;;;10.90;71.90;;;;;;5093156;28;20028;-36
2021/05/04 08:13:08;;;;;;;4.10;1.40;;;11.00;71.50;;;;;;5092555;28;20167;-36
2021/05/04 08:15:34;;;;;;;1.90;1.05;;;11.00;70.80;;;;;;5093425;28;20095;-36
2021/05/04 08:18:03;;;;;;;1.17;0.85;;;11.00;71.70;;;;;;5093692;28;20051;-37
2021/05/04 08:20:33;;;;;;;5.63;1.33;;;10.90;72.60;;;;;;5093410;28;20016;-36
2021/05/04 08:23:06;;;;;;;5.10;1.23;;;10.70;74.80;;;;;;5093088;28;20081;-36
2021/05/04 08:25:31;;;;;;;2.75;1.40;;;10.30;78.20;;;;;;5075403;28;20024;-36
2021/05/04 08:27:57;;;;;;;1.67;1.45;;;9.90;81.50;;;;;;5093218;28;20175;-36
2021/05/04 08:30:23;;;;;;;1.98;1.27;;;9.80;81.30;;;;;;5093466;28;20042;-36
2021/05/04 08:32:49;;;;;;;7.30;1.73;;;9.80;83.60;;;;;;5092910;28;20020;-35
2021/05/04 08:35:15;;;;;;;2.88;1.75;;;9.90;80.80;;;;;;5093426;28;20079;-35
2021/05/04 08:37:41;;;;;;;8.20;1.73;;;10.00;80.20;;;;;;5092883;28;20086;-36
2021/05/04 08:40:07;;;;;;;5.10;1.77;;;9.90;80.70;;;;;;5091680;28;20023;-35
2021/05/04 08:42:33;;;;;;;2.78;1.20;;;10.00;80.30;;;;;;5093359;28;20118;-34
2021/05/04 08:45:03;;;;;;;2.55;1.35;;;10.10;79.30;;;;;;5094107;28;20103;-37
2021/05/04 08:47:29;;;;;;;7.07;1.88;;;10.30;80.30;;;;;;5095117;28;20027;-35
2021/05/04 08:49:55;;;;;;;9.43;1.70;;;10.40;77.40;;;;;;5096195;28;20034;-41
2021/05/04 08:52:21;;;;;;;5.05;1.35;;;10.50;78.20;;;;;;5092344;28;20042;-35
2021/05/04 08:54:47;;;;;;;4.25;1.60;;;10.30;77.70;;;;;;5094288;28;20419;-36
2021/05/04 08:57:12;;;;;;;4.72;2.00;;;10.40;77.60;;;;;;5091788;28;20029;-36
2021/05/04 08:59:38;;;;;;;4.88;1.52;;;10.40;76.60;;;;;;5095140;28;20028;-36
2021/05/04 09:02:04;;;;;;;3.63;1.65;;;10.50;76.60;;;;;;5093332;28;20081;-36
2021/05/04 09:04:37;;;;;;;4.03;1.50;;;10.60;74.90;;;;;;5091467;28;20028;-35
2021/05/04 09:07:28;;;;;;;4.95;1.85;;;10.70;75.60;;;;;;5092851;28;20475;-36
2021/05/04 09:10:03;;;;;;;4.75;1.05;;;10.80;74.10;;;;;;5092896;28;20027;-37
2021/05/04 09:12:38;;;;;;;4.05;1.65;;;10.90;72.30;;;;;;5093237;28;20020;-35
2021/05/04 09:21:14;;;;;;;5.78;1.52;;;11.00;71.60;;;;;;5092252;28;20380;-36
2021/05/04 09:23:42;;;;;;;2.83;1.80;;;11.10;72.40;;;;;;5092761;28;20008;-35
2021/05/04 09:26:19;;;;;;;1.40;1.02;;;11.20;72.70;;;;;;5092524;28;20103;-35
2021/05/04 09:28:53;;;;;;;7.63;1.63;;;11.40;71.20;;;;;;5090795;28;20050;-35
2021/05/04 09:31:27;;;;;;;1.73;0.80;;;11.80;70.60;;;;;;5092436;28;20109;-35
2021/05/04 09:33:54;;;;;;;3.78;1.38;;;12.00;71.10;;;;;;5092708;28;20016;-36
2021/05/04 09:36:48;;;;;;;4.63;1.55;;;12.00;71.30;;;;;;5092869;28;20521;-36
2021/05/04 09:39:34;;;;;;;1.80;1.30;;;11.80;71.10;;;;;;5092521;28;20024;-37
2021/05/04 09:42:01;;;;;;;2.58;1.27;;;11.60;71.40;;;;;;5092803;28;20017;-37
2021/05/04 09:44:37;;;;;;;4.30;1.17;;;11.50;71.50;;;;;;5094807;28;20380;-35
2021/05/04 09:47:04;;;;;;;3.63;1.25;;;11.50;70.20;;;;;;5096735;28;20391;-36
2021/05/04 09:49:34;;;;;;;3.75;0.80;;;11.50;70.20;;;;;;5096671;28;20153;-37
2021/05/04 09:52:42;;;;;;;4.45;0.70;;;11.50;70.40;;;;;;5096229;28;20174;-36
2021/05/04 09:55:14;;;;;;;3.28;1.27;;;11.70;70.00;;;;;;5096544;28;20531;-36
2021/05/04 09:57:44;;;;;;;2.88;1.10;;;12.20;68.70;;;;;;5096622;28;20032;-36
2021/05/04 10:00:14;;;;;;;;;;;12.20;68.80;;;;;;5096579;28;20047;-36
2021/05/04 10:02:41;;;;;;;2.13;0.85;;;12.40;67.60;;;;;;5096571;28;19904;-36
2021/05/04 10:05:09;;;;;;;4.75;1.00;;;12.30;67.90;;;;;;5095942;28;20024;-36
2021/05/04 10:07:36;;;;;;;3.15;1.08;;;12.30;68.20;;;;;;5095037;28;20031;-36
2021/05/04 10:10:04;;;;;;;4.03;1.50;;;12.40;66.30;;;;;;5096213;28;20078;-35
2021/05/04 10:12:30;;;;;;;3.47;1.88;;;12.80;65.40;;;;;;5095816;28;20020;-36
2021/05/04 10:15:00;;;;;;;6.60;1.20;;;13.60;62.30;;;;;;5095969;28;20023;-35
2021/05/04 10:17:26;;;;;;;6.78;1.40;;;13.20;63.30;;;;;;5095735;28;20024;-36
2021/05/04 10:19:53;;;;;;;4.70;1.15;;;13.50;63.10;;;;;;5095750;28;20074;-36
2021/05/04 10:22:20;;;;;;;1.52;0.98;;;12.90;64.60;;;;;;5095573;28;20116;-36
2021/05/04 10:24:49;;;;;;;4.07;1.50;;;12.50;67.00;;;;;;5094086;28;20441;-36
2021/05/04 10:27:18;;;;;;;11.57;1.83;;;12.80;64.80;;;;;;5094078;28;20042;-35
2021/05/04 10:29:44;;;;;;;7.03;1.27;;;12.90;63.70;;;;;;5095066;28;20119;-35
2021/05/04 10:32:13;;;;;;;10.73;2.00;;;12.80;62.50;;;;;;5095143;28;20058;-36
2021/05/04 10:34:41;;;;;;;6.32;1.65;;;12.60;62.40;;;;;;5095217;28;20095;-36
2021/05/04 10:37:24;;;;;;;9.23;2.13;;;12.40;63.60;;;;;;5094582;28;20028;-35
2021/05/04 10:39:50;;;;;;;13.55;1.58;;;12.20;68.10;;;;;;5095286;28;20028;-36
2021/05/04 10:42:33;;;;;;;5.90;1.75;;;11.80;70.00;;;;;;5096188;28;20405;-36
2021/05/04 10:44:59;;;;;;;5.53;1.75;;;12.00;69.60;;;;;;5093729;28;20031;-35
2021/05/04 10:47:42;;;;;;;6.88;1.70;;;12.00;68.10;;;;;;5095616;28;20404;-36
2021/05/04 10:50:11;;;;;;;9.95;1.92;;;12.10;67.80;;;;;;5093477;28;20353;-36
2021/05/04 10:52:54;;;;;;;7.80;1.73;;;12.20;64.40;;;;;;5095127;28;20039;-36
2021/05/04 10:55:44;;;;;;;11.98;3.03;;;12.30;60.90;;;;;;5094393;28;20028;-36
2021/05/04 10:58:10;;;;;;;11.88;2.00;;;12.10;61.10;;;;;;5094696;28;20115;-36
2021/05/04 11:00:54;;;;;;;3.75;1.63;;;11.80;64.00;;;;;;5094896;28;20101;-36
2021/05/04 11:03:29;;;;;;;5.43;1.80;;;11.90;68.20;;;;;;5094856;28;20044;-36
2021/05/04 11:05:55;;;;;;;6.05;1.70;;;12.30;67.40;;;;;;5094532;28;20028;-36
2021/05/04 11:08:21;;;;;;;7.07;1.85;;;12.70;65.00;;;;;;5094800;28;20378;-35
2021/05/04 11:11:21;;;;;;;5.97;2.00;;;13.30;62.30;;;;;;5095192;28;20022;-36
2021/05/04 11:13:58;;;;;;;7.05;1.70;;;13.20;61.70;;;;;;5093158;28;20119;-35
2021/05/04 11:16:35;;;;;;;9.00;1.95;;;13.40;60.80;;;;;;5095035;28;20353;-36
2021/05/04 11:19:10;;;;;;;17.30;2.33;;;13.40;58.10;;;;;;5094758;28;20024;-36
2021/05/04 11:21:47;;;;;;;8.30;1.73;;;13.70;57.60;;;;;;5094621;28;20173;-35
2021/05/04 11:24:15;;;;;;;10.73;1.98;;;13.20;56.00;;;;;;5094636;28;20024;-37
2021/05/04 11:26:56;;;;;;;7.82;2.50;;;12.90;56.10;;;;;;5093096;28;20027;-35
2021/05/04 11:29:38;;;;;;;6.82;1.73;;;12.50;56.40;;;;;;5094654;28;20051;-37
2021/05/04 11:32:10;;;;;;;5.32;1.67;;;12.80;55.30;;;;;;5094776;28;20149;-36
2021/05/04 11:34:43;;;;;;;5.00;1.52;;;12.70;55.00;;;;;;5094309;28;20039;-36
2021/05/04 11:37:13;;;;;;;6.20;2.60;;;12.40;54.20;;;;;;5094309;28;20031;-35
2021/05/04 11:39:57;;;;;;;17.42;4.07;;;12.40;55.40;;;;;;5094482;28;20024;-36
2021/05/04 11:42:33;;;;;;;10.18;2.38;;;12.60;57.70;;;;;;5094430;28;20067;-35
2021/05/04 11:45:14;;;;;;;10.35;2.17;;;13.00;55.10;;;;;;5094138;28;20050;-36
2021/05/04 11:47:48;;;;;;;16.10;3.63;;;12.80;54.00;;;;;;5092655;28;20031;-36
2021/05/04 11:50:19;;;;;;;15.25;2.30;;;12.40;55.50;;;;;;5093818;28;20047;-36
2021/05/04 11:52:48;;;;;;;7.82;1.98;;;11.90;60.60;;;;;;5094100;28;20475;-37
2021/05/04 11:55:20;;;;;;;10.38;2.72;;;11.20;65.50;;;;;;5093654;28;20134;-35
2021/05/04 11:57:55;;;;;;;5.07;2.53;;;11.00;64.80;;;;;;5092447;28;20107;-35
2021/05/04 12:00:23;;;;;;;6.10;1.73;;;11.00;65.80;;;;;;5076801;28;20035;-38
2021/05/04 12:02:49;;;;;;;10.05;2.42;;;11.40;65.30;;;;;;5092454;28;20154;-37
2021/05/04 12:05:30;;;;;;;6.63;1.98;;;11.70;63.10;;;;;;5092577;28;20023;-37
2021/05/04 12:08:00;;;;;;;5.63;2.50;;;12.10;60.20;;;;;;5093188;28;20050;-36
2021/05/04 12:10:31;;;;;;;18.88;2.25;;;12.30;59.50;;;;;;5093573;28;20035;-38
2021/05/04 12:12:58;;;;;;;;;;;12.20;60.10;;;;;;5093009;28;20020;-36
2021/05/04 12:15:31;;;;;;;15.63;2.35;;;12.20;58.90;;;;;;5093047;28;19904;-36
2021/05/04 12:18:15;;;;;;;10.00;1.52;;;11.90;59.00;;;;;;5093860;28;20089;-35
2021/05/04 12:20:55;;;;;;;7.90;2.20;;;12.20;57.50;;;;;;5092091;28;20020;-35
2021/05/04 12:23:32;;;;;;;7.90;1.60;;;12.20;56.40;;;;;;5094468;28;20101;-36
2021/05/04 12:26:12;;;;;;;10.90;1.40;;;12.30;54.40;;;;;;5092239;28;20488;-35
2021/05/04 12:28:46;;;;;;;2.70;1.10;;;12.50;53.30;;;;;;5093589;28;20020;-36
2021/05/04 12:31:18;;;;;;;6.80;1.70;;;12.50;52.40;;;;;;5093547;28;20025;-36
2021/05/04 12:33:52;;;;;;;13.05;3.13;;;12.70;52.10;;;;;;5093759;28;20024;-36
2021/05/04 12:36:33;;;;;;;5.20;2.05;;;12.70;50.50;;;;;;5093611;28;20048;-37
2021/05/04 12:39:00;;;;;;;4.22;2.05;;;12.50;51.30;;;;;;5093494;28;20090;-35
2021/05/04 12:41:38;;;;;;;5.07;1.75;;;12.30;51.80;;;;;;5092145;28;20048;-36
2021/05/04 12:46:49;;;;;;;4.80;1.88;;;12.20;55.50;;;;;;5093574;28;20024;-35
2021/05/04 12:49:19;;;;;;;9.60;2.00;;;12.80;55.60;;;;;;5091902;28;20502;-37
2021/05/04 12:51:47;;;;;;;9.77;2.17;;;13.10;53.60;;;;;;5091750;28;20383;-36
2021/05/04 12:54:19;;;;;;;12.18;2.58;;;12.80;53.70;;;;;;5091783;28;20258;-35
2021/05/04 12:56:46;;;;;;;4.10;1.73;;;12.40;54.60;;;;;;5093332;28;20591;-36
2021/05/04 12:59:28;;;;;;;7.32;2.10;;;12.40;54.00;;;;;;5093438;28;20051;-37
2021/05/04 13:01:56;;;;;;;8.07;1.30;;;12.80;52.60;;;;;;5093147;28;20103;-35
2021/05/04 13:05:05;;;;;;;11.15;2.38;;;12.70;53.10;;;;;;5093066;28;20028;-37